Terminal Aerodrome Forecast
Issued by NWS

Current Version | Previous Version | Graphics & Text | Print | Product List | Glossary On
Versions: 1 2 3 4 5 6 7 8 9 10 11 12 13 14 15 16 17 18 19
000
FTUS41 KILN 101631 AAA
TAFLUK
TAF AMD
KLUK 101631Z 1017/1112 27006KT P6SM BKN025
     FM101800 26007KT P6SM SCT035 BKN100
     FM110000 00000KT P6SM BKN080=

USA.gov is the U.S. government's official web portal to all federal, state and local government web resources and services.